createdAt,value
2019-06-27T00:01:25.928Z,8.80
2019-06-27T00:05:30.283Z,8.47
2019-06-27T00:09:36.448Z,7.53
2019-06-27T00:13:49.717Z,6.03
2019-06-27T00:17:55.140Z,9.50
2019-06-27T00:22:00.293Z,11.63
2019-06-27T00:26:10.265Z,10.27
2019-06-27T00:30:14.660Z,8.73
2019-06-27T00:34:19.829Z,8.53
2019-06-27T00:38:25.576Z,8.23
2019-06-27T00:42:29.860Z,8.57
2019-06-27T00:46:34.076Z,8.20
2019-06-27T00:50:38.138Z,8.17
2019-06-27T00:54:42.288Z,7.53
2019-06-27T00:58:54.712Z,8.93
2019-06-27T01:02:58.840Z,6.73
2019-06-27T01:07:03.243Z,10.00
2019-06-27T01:11:15.551Z,9.33
2019-06-27T01:15:21.671Z,8.00
2019-06-27T01:19:28.855Z,7.13
2019-06-27T01:23:33.459Z,9.93
2019-06-27T01:27:37.949Z,8.23
2019-06-27T01:31:43.308Z,8.77
2019-06-27T01:35:48.720Z,7.97
2019-06-27T01:39:57.289Z,9.37
2019-06-27T01:44:01.894Z,10.73
2019-06-27T01:48:12.138Z,8.67
2019-06-27T01:52:17.311Z,6.47
2019-06-27T01:56:24.572Z,7.50
2019-06-27T02:05:33.927Z,8.77
2019-06-27T02:09:38.149Z,9.97
2019-06-27T02:13:42.627Z,10.60
2019-06-27T02:17:52.534Z,9.43
2019-06-27T02:21:57.731Z,6.50
2019-06-27T02:26:01.900Z,8.23
2019-06-27T02:30:07.330Z,9.57
2019-06-27T02:34:11.465Z,8.70
2019-06-27T02:38:15.563Z,10.90
2019-06-27T02:42:21.929Z,7.47
2019-06-27T02:46:26.473Z,7.63
2019-06-27T02:50:33.077Z,11.20
2019-06-27T02:54:39.271Z,7.80
2019-06-27T02:58:45.595Z,8.97
2019-06-27T03:02:50.168Z,8.13
2019-06-27T03:06:54.256Z,12.90
2019-06-27T03:10:59.477Z,10.10
2019-06-27T03:15:03.896Z,8.97
2019-06-27T03:19:08.663Z,8.13
2019-06-27T03:23:14.953Z,12.73
2019-06-27T03:27:19.089Z,9.03
2019-06-27T03:31:23.242Z,11.33
2019-06-27T03:35:28.363Z,8.43
2019-06-27T03:39:32.871Z,8.93
2019-06-27T03:43:37.504Z,9.30
2019-06-27T03:47:41.684Z,10.07
2019-06-27T03:51:50.043Z,8.67
2019-06-27T03:55:56.160Z,9.07
2019-06-27T04:00:00.272Z,8.93
2019-06-27T04:04:05.038Z,7.90
2019-06-27T04:08:22.245Z,9.50
2019-06-27T04:12:26.781Z,11.33
2019-06-27T04:16:33.464Z,6.90
2019-06-27T04:20:38.626Z,7.50
2019-06-27T04:24:43.879Z,7.77
2019-06-27T04:28:48.133Z,9.37
2019-06-27T04:32:52.595Z,7.60
2019-06-27T04:36:56.917Z,10.27
2019-06-27T04:41:22.450Z,8.47
2019-06-27T04:45:28.588Z,9.83
2019-06-27T04:49:33.054Z,8.13
2019-06-27T04:53:53.638Z,9.60
2019-06-27T04:58:00.585Z,7.73
2019-06-27T05:02:12.793Z,7.90
2019-06-27T05:06:29.084Z,6.63
2019-06-27T05:10:33.199Z,10.57
2019-06-27T05:14:37.774Z,5.93
2019-06-27T05:18:42.916Z,10.97
2019-06-27T05:22:53.696Z,11.10
2019-06-27T05:27:00.481Z,7.20
2019-06-27T05:31:04.605Z,8.87
2019-06-27T05:35:08.752Z,9.80
2019-06-27T05:39:13.872Z,7.03
2019-06-27T05:43:18.044Z,6.57
2019-06-27T05:47:22.214Z,8.13
2019-06-27T05:51:26.388Z,6.37
2019-06-27T05:55:30.466Z,4.90
2019-06-27T05:59:34.554Z,6.47
2019-06-27T06:03:38.899Z,5.77
2019-06-27T06:07:43.309Z,6.53
2019-06-27T06:11:47.400Z,6.47
2019-06-27T06:15:51.495Z,5.30
2019-06-27T06:19:56.010Z,5.07
2019-06-27T06:24:00.192Z,6.40
2019-06-27T06:28:04.918Z,9.07
2019-06-27T06:32:08.995Z,5.30
2019-06-27T06:36:13.422Z,7.43
2019-06-27T06:40:18.047Z,6.80
2019-06-27T06:44:22.255Z,7.03
2019-06-27T06:48:26.321Z,4.47
2019-06-27T06:52:30.508Z,6.57
2019-06-27T06:56:34.891Z,7.17
2019-06-27T07:00:39.411Z,7.40
2019-06-27T07:04:43.793Z,9.07
2019-06-27T07:08:48.131Z,5.23
2019-06-27T07:12:52.479Z,5.70
2019-06-27T07:16:56.729Z,5.20
2019-06-27T07:21:00.854Z,4.33
2019-06-27T07:25:05.090Z,5.20
2019-06-27T07:29:09.169Z,10.90
2019-06-27T07:33:13.518Z,4.93
2019-06-27T07:37:17.922Z,5.23
2019-06-27T07:41:21.993Z,7.63
2019-06-27T07:45:26.756Z,5.10
2019-06-27T07:49:33.147Z,6.23
2019-06-27T07:53:37.224Z,5.37
2019-06-27T07:57:41.630Z,4.53
2019-06-27T08:01:45.712Z,5.17
2019-06-27T08:05:50.622Z,6.53
2019-06-27T08:09:54.677Z,4.73
2019-06-27T08:13:59.063Z,7.90
2019-06-27T08:18:03.169Z,7.33
2019-06-27T08:22:07.591Z,6.63
2019-06-27T08:26:11.654Z,5.07
2019-06-27T08:30:17.270Z,5.53
2019-06-27T08:34:21.348Z,6.27
2019-06-27T08:38:25.441Z,5.77
2019-06-27T08:42:30.088Z,3.57
2019-06-27T08:46:34.635Z,5.07
2019-06-27T08:50:38.698Z,4.77
2019-06-27T08:54:43.085Z,3.87
2019-06-27T08:58:47.181Z,6.13
2019-06-27T09:02:51.299Z,2.90
2019-06-27T09:06:55.627Z,5.67
2019-06-27T09:11:00.015Z,4.20
2019-06-27T09:15:04.836Z,5.97
2019-06-27T09:19:09.247Z,4.47
2019-06-27T09:23:13.592Z,4.80
2019-06-27T09:27:18.024Z,4.43
2019-06-27T09:31:22.530Z,5.07
2019-06-27T09:35:26.635Z,6.47
2019-06-27T09:39:30.764Z,3.50
2019-06-27T09:43:35.161Z,3.57
2019-06-27T09:47:39.514Z,5.43
2019-06-27T09:51:43.609Z,3.60
2019-06-27T09:55:47.944Z,5.67
2019-06-27T09:59:52.422Z,6.50
2019-06-27T10:03:56.783Z,5.23
2019-06-27T10:08:01.152Z,3.50
2019-06-27T10:12:05.220Z,3.43
2019-06-27T10:16:09.622Z,2.80
2019-06-27T10:20:15.558Z,3.90
2019-06-27T10:24:20.258Z,2.90
2019-06-27T10:28:26.048Z,3.20
2019-06-27T10:32:30.161Z,2.70
2019-06-27T10:36:38.408Z,2.83
2019-06-27T10:40:42.566Z,2.77
2019-06-27T10:44:47.127Z,2.97
2019-06-27T10:48:52.099Z,2.40
2019-06-27T10:52:56.453Z,4.70
2019-06-27T10:57:01.191Z,2.70
2019-06-27T11:01:05.662Z,4.43
2019-06-27T11:05:10.287Z,3.80
2019-06-27T11:09:14.574Z,4.87
2019-06-27T11:13:19.061Z,2.40
2019-06-27T11:17:23.100Z,2.13
2019-06-27T11:21:27.202Z,3.43
2019-06-27T11:25:31.712Z,3.73
2019-06-27T11:29:35.825Z,3.20
2019-06-27T11:33:40.178Z,3.10
2019-06-27T11:37:47.737Z,2.60
2019-06-27T11:41:52.086Z,1.87
2019-06-27T11:45:56.244Z,2.30
2019-06-27T11:50:00.619Z,4.10
2019-06-27T11:54:04.735Z,2.57
2019-06-27T11:58:09.194Z,1.23
2019-06-27T12:02:13.586Z,1.00
2019-06-27T12:06:17.685Z,5.30
2019-06-27T12:10:22.356Z,3.43
2019-06-27T12:14:26.859Z,0.90
2019-06-27T12:18:31.231Z,1.70
2019-06-27T12:22:35.816Z,1.63
2019-06-27T12:26:40.265Z,1.10
2019-06-27T12:30:44.518Z,1.53
2019-06-27T12:34:48.962Z,0.80
2019-06-27T12:38:53.862Z,0.87
2019-06-27T12:42:58.280Z,1.63
2019-06-27T12:47:03.472Z,0.97
2019-06-27T12:51:07.705Z,1.10
2019-06-27T12:55:11.922Z,1.43
2019-06-27T12:59:16.004Z,0.77
2019-06-27T13:03:20.571Z,1.37
2019-06-27T13:07:24.674Z,0.50
2019-06-27T13:11:28.803Z,0.43
2019-06-27T13:15:33.545Z,4.33
2019-06-27T13:19:39.765Z,1.33
2019-06-27T13:23:44.267Z,0.30
2019-06-27T13:27:48.421Z,0.30
2019-06-27T13:31:52.565Z,0.50
2019-06-27T13:35:56.642Z,0.30
2019-06-27T13:40:04.506Z,0.50
2019-06-27T13:44:06.830Z,0.73
2019-06-27T13:48:10.980Z,0.50
2019-06-27T13:52:15.779Z,0.40
2019-06-27T13:56:20.280Z,0.50
2019-06-27T14:00:34.411Z,0.53
2019-06-27T14:04:38.903Z,4.77
2019-06-27T14:08:43.166Z,2.20
2019-06-27T14:12:47.663Z,0.60
2019-06-27T14:16:51.735Z,0.50
2019-06-27T14:20:56.155Z,0.40
2019-06-27T14:25:00.513Z,0.63
2019-06-27T14:29:06.475Z,3.33
2019-06-27T14:33:11.013Z,0.67
2019-06-27T14:37:15.496Z,0.20
2019-06-27T14:41:19.867Z,0.30
2019-06-27T14:45:23.968Z,0.30
2019-06-27T14:49:28.430Z,1.27
2019-06-27T14:53:32.516Z,0.97
2019-06-27T14:57:38.917Z,0.90
2019-06-27T15:01:42.988Z,2.00
2019-06-27T15:05:47.440Z,1.67
2019-06-27T15:09:57.316Z,2.63
2019-06-27T15:14:01.418Z,0.73
2019-06-27T15:18:05.623Z,0.60
2019-06-27T15:22:09.747Z,2.03
2019-06-27T15:26:13.871Z,1.33
2019-06-27T15:30:24.303Z,0.80
2019-06-27T15:34:24.367Z,1.33
2019-06-27T15:38:29.042Z,0.70
2019-06-27T15:42:33.142Z,0.60
2019-06-27T15:46:37.479Z,0.33
2019-06-27T15:50:41.591Z,2.47
2019-06-27T15:54:46.509Z,2.23
2019-06-27T15:58:50.619Z,0.40
2019-06-27T16:02:55.072Z,0.47
2019-06-27T16:06:59.617Z,1.10
2019-06-27T16:11:03.732Z,0.50
2019-06-27T16:15:08.796Z,6.23
2019-06-27T16:19:13.291Z,2.73
2019-06-27T16:23:17.447Z,2.10
2019-06-27T16:27:21.513Z,1.23
2019-06-27T16:31:25.674Z,1.60
2019-06-27T16:35:30.152Z,1.90
2019-06-27T16:39:34.811Z,1.90
2019-06-27T16:43:39.782Z,1.63
2019-06-27T16:47:43.865Z,0.50
2019-06-27T16:51:48.063Z,2.43
2019-06-27T16:55:52.175Z,1.10
2019-06-27T16:59:56.300Z,1.83
2019-06-27T17:04:00.435Z,1.27
2019-06-27T17:08:04.572Z,2.10
2019-06-27T17:12:08.978Z,2.90
2019-06-27T17:16:13.399Z,6.33
2019-06-27T17:20:20.379Z,2.33
2019-06-27T17:24:25.212Z,2.03
2019-06-27T17:28:29.346Z,2.47
2019-06-27T17:32:33.459Z,6.97
2019-06-27T17:36:38.180Z,2.57
2019-06-27T17:40:42.242Z,3.83
2019-06-27T17:44:46.338Z,1.53
2019-06-27T17:48:51.057Z,2.03
2019-06-27T17:52:55.248Z,2.63
2019-06-27T17:56:59.584Z,1.73
2019-06-27T18:01:13.242Z,1.43
2019-06-27T18:05:18.639Z,2.93
2019-06-27T18:09:23.579Z,1.63
2019-06-27T18:13:27.943Z,1.37
2019-06-27T18:17:34.096Z,1.40
2019-06-27T18:21:38.176Z,2.73
2019-06-27T18:25:42.694Z,2.20
2019-06-27T18:29:48.064Z,5.03
2019-06-27T18:33:52.474Z,1.33
2019-06-27T18:37:56.805Z,2.23
2019-06-27T18:42:05.068Z,2.17
2019-06-27T18:46:09.146Z,1.97
2019-06-27T18:50:19.697Z,6.07
2019-06-27T18:54:23.773Z,3.43
2019-06-27T18:58:27.954Z,2.90
2019-06-27T19:02:32.114Z,2.17
2019-06-27T19:06:36.591Z,2.60
2019-06-27T19:10:53.517Z,4.03
2019-06-27T19:14:57.941Z,1.50
2019-06-27T19:19:04.956Z,3.27
2019-06-27T19:23:37.001Z,1.63
2019-06-27T19:27:42.803Z,2.73
2019-06-27T19:31:47.295Z,2.03
2019-06-27T19:35:58.735Z,2.97
2019-06-27T19:40:03.217Z,2.37
2019-06-27T19:44:09.406Z,1.77
2019-06-27T19:48:15.834Z,2.67
2019-06-27T19:52:21.194Z,2.47
2019-06-27T19:56:25.736Z,4.70
2019-06-27T20:00:29.818Z,1.40
2019-06-27T20:04:34.280Z,2.63
2019-06-27T20:08:39.140Z,0.87
2019-06-27T20:12:43.808Z,1.80
2019-06-27T20:17:03.788Z,1.77
2019-06-27T20:21:10.272Z,3.97
2019-06-27T20:25:15.326Z,3.33
2019-06-27T20:29:38.063Z,3.03
2019-06-27T20:33:42.506Z,1.43
2019-06-27T20:37:46.966Z,2.90
2019-06-27T20:42:07.695Z,2.73
2019-06-27T20:46:12.819Z,2.07
2019-06-27T20:50:19.966Z,5.07
2019-06-27T20:54:25.065Z,2.17
2019-06-27T20:58:29.946Z,2.77
2019-06-27T21:02:35.049Z,1.53
2019-06-27T21:06:41.118Z,3.93
2019-06-27T21:10:45.188Z,0.87
2019-06-27T21:14:55.573Z,3.67
2019-06-27T21:19:00.035Z,2.50
2019-06-27T21:23:04.531Z,3.13
2019-06-27T21:27:09.494Z,3.10
2019-06-27T21:31:13.554Z,1.70
2019-06-27T21:35:18.072Z,3.63
2019-06-27T21:39:22.471Z,1.83
2019-06-27T21:43:26.882Z,2.73
2019-06-27T21:47:30.960Z,2.13
2019-06-27T21:51:35.517Z,1.67
2019-06-27T21:55:39.717Z,1.07
2019-06-27T21:59:44.735Z,1.50
2019-06-27T22:03:49.135Z,1.97
2019-06-27T22:07:53.836Z,1.37
2019-06-27T22:11:59.065Z,2.37
2019-06-27T22:16:10.039Z,3.37
2019-06-27T22:20:16.026Z,1.87
2019-06-27T22:24:32.549Z,2.63
2019-06-27T22:28:37.688Z,2.37
2019-06-27T22:32:51.037Z,3.43
2019-06-27T22:37:04.173Z,2.03
2019-06-27T22:41:32.015Z,1.23
2019-06-27T22:46:02.785Z,1.50
2019-06-27T22:50:22.201Z,2.10
2019-06-27T22:54:26.971Z,3.23
2019-06-27T22:58:31.108Z,2.10
2019-06-27T23:02:35.260Z,1.70
2019-06-27T23:06:39.363Z,1.00
2019-06-27T23:10:43.410Z,2.40
2019-06-27T23:14:47.489Z,3.60
2019-06-27T23:18:59.217Z,3.13
2019-06-27T23:23:03.769Z,1.93
2019-06-27T23:27:09.221Z,5.10
2019-06-27T23:31:15.557Z,2.50
2019-06-27T23:35:20.355Z,2.27
2019-06-27T23:39:25.267Z,2.33
2019-06-27T23:43:31.237Z,1.20
2019-06-27T23:47:35.386Z,1.87
2019-06-27T23:51:39.700Z,1.10
2019-06-27T23:55:43.794Z,2.37
2019-06-27T23:59:47.962Z,1.13
